Terminal Aerodrome Forecast
Issued by NWS

Home | Current Version | Previous Version | Text Only | Print | Product List | Glossary On
Versions: 1 2 3 4 5 6 7 8 9 10 11 12 13 14 15 16 17 18 19 20 21 22 23 24 25 26 27 28 29 30 31 32 33 34 35 36 37 38 39 40 41 42
000
FTUS41 KBOX 030821 AAA
TAFBAF
TAF AMD
KBAF 030821Z 0308/0406 00000KT 3SM BR FEW250
     FM030900 VRB03KT 1SM BR SCT002
     FM031200 VRB03KT P6SM FEW250
     FM031800 02005KT P6SM VCSH FEW200
     FM032100 36005KT P6SM VCSH BKN060
     FM032300 01004KT P6SM BKN070=

USA.gov is the U.S. government's official web portal to all federal, state and local government web resources and services.